sensor_id;sensor_type;location;lat;lon;timestamp;P1;durP1;ratioP1;P2;durP2;ratioP2
56373;SDS011;58212;47.034;7.376;2023-04-24T00:02:20;1.65;;;0.20;;
56373;SDS011;58212;47.034;7.376;2023-04-24T00:04:49;0.65;;;0.13;;
56373;SDS011;58212;47.034;7.376;2023-04-24T00:07:17;0.20;;;0.20;;
56373;SDS011;58212;47.034;7.376;2023-04-24T00:09:46;0.20;;;0.20;;
56373;SDS011;58212;47.034;7.376;2023-04-24T00:12:13;0.20;;;0.20;;
56373;SDS011;58212;47.034;7.376;2023-04-24T00:14:41;0.52;;;0.20;;
56373;SDS011;58212;47.034;7.376;2023-04-24T00:17:08;0.52;;;0.20;;
56373;SDS011;58212;47.034;7.376;2023-04-24T00:19:35;0.20;;;0.20;;
56373;SDS011;58212;47.034;7.376;2023-04-24T00:22:02;0.55;;;0.10;;
56373;SDS011;58212;47.034;7.376;2023-04-24T00:24:30;0.80;;;0.20;;
56373;SDS011;58212;47.034;7.376;2023-04-24T00:26:58;0.25;;;0.15;;
56373;SDS011;58212;47.034;7.376;2023-04-24T00:29:26;0.80;;;0.10;;
56373;SDS011;58212;47.034;7.376;2023-04-24T00:31:53;0.40;;;0.25;;
56373;SDS011;58212;47.034;7.376;2023-04-24T00:34:21;0.77;;;0.30;;
56373;SDS011;58212;47.034;7.376;2023-04-24T00:36:47;0.20;;;0.20;;
56373;SDS011;58212;47.034;7.376;2023-04-24T00:39:19;0.17;;;0.10;;
56373;SDS011;58212;47.034;7.376;2023-04-24T00:41:47;0.75;;;0.10;;
56373;SDS011;58212;47.034;7.376;2023-04-24T00:44:16;0.20;;;0.20;;
56373;SDS011;58212;47.034;7.376;2023-04-24T00:46:44;0.20;;;0.20;;
56373;SDS011;58212;47.034;7.376;2023-04-24T00:49:17;0.40;;;0.28;;
56373;SDS011;58212;47.034;7.376;2023-04-24T00:51:44;0.20;;;0.20;;
56373;SDS011;58212;47.034;7.376;2023-04-24T00:54:12;0.85;;;0.15;;
56373;SDS011;58212;47.034;7.376;2023-04-24T00:56:43;0.20;;;0.15;;
56373;SDS011;58212;47.034;7.376;2023-04-24T00:59:13;1.02;;;0.70;;
56373;SDS011;58212;47.034;7.376;2023-04-24T01:01:42;1.05;;;0.30;;
56373;SDS011;58212;47.034;7.376;2023-04-24T01:04:11;0.20;;;0.20;;
56373;SDS011;58212;47.034;7.376;2023-04-24T01:06:39;0.95;;;0.20;;
56373;SDS011;58212;47.034;7.376;2023-04-24T01:09:07;0.10;;;0.10;;
56373;SDS011;58212;47.034;7.376;2023-04-24T01:11:35;1.27;;;0.22;;
56373;SDS011;58212;47.034;7.376;2023-04-24T01:14:04;0.68;;;0.20;;
56373;SDS011;58212;47.034;7.376;2023-04-24T01:16:32;0.32;;;0.20;;
56373;SDS011;58212;47.034;7.376;2023-04-24T01:19:01;0.88;;;0.30;;
56373;SDS011;58212;47.034;7.376;2023-04-24T01:21:28;0.75;;;0.25;;
56373;SDS011;58212;47.034;7.376;2023-04-24T01:23:58;0.10;;;0.10;;
56373;SDS011;58212;47.034;7.376;2023-04-24T01:26:25;0.75;;;0.20;;
56373;SDS011;58212;47.034;7.376;2023-04-24T01:28:52;0.22;;;0.22;;
56373;SDS011;58212;47.034;7.376;2023-04-24T01:31:20;0.20;;;0.20;;
56373;SDS011;58212;47.034;7.376;2023-04-24T01:34:12;0.30;;;0.20;;
56373;SDS011;58212;47.034;7.376;2023-04-24T01:37:04;0.80;;;0.20;;
56373;SDS011;58212;47.034;7.376;2023-04-24T01:39:33;0.50;;;0.10;;
56373;SDS011;58212;47.034;7.376;2023-04-24T01:42:02;0.20;;;0.20;;
56373;SDS011;58212;47.034;7.376;2023-04-24T01:44:31;0.17;;;0.17;;
56373;SDS011;58212;47.034;7.376;2023-04-24T01:47:02;0.20;;;0.20;;
56373;SDS011;58212;47.034;7.376;2023-04-24T01:49:30;1.17;;;0.60;;
56373;SDS011;58212;47.034;7.376;2023-04-24T01:52:01;0.50;;;0.20;;
56373;SDS011;58212;47.034;7.376;2023-04-24T01:54:29;0.47;;;0.28;;
56373;SDS011;58212;47.034;7.376;2023-04-24T01:56:59;0.20;;;0.20;;
56373;SDS011;58212;47.034;7.376;2023-04-24T01:59:28;0.45;;;0.22;;
56373;SDS011;58212;47.034;7.376;2023-04-24T02:01:56;0.63;;;0.20;;
56373;SDS011;58212;47.034;7.376;2023-04-24T02:04:23;0.50;;;0.45;;
56373;SDS011;58212;47.034;7.376;2023-04-24T02:06:50;0.63;;;0.20;;
56373;SDS011;58212;47.034;7.376;2023-04-24T02:09:17;0.63;;;0.15;;
56373;SDS011;58212;47.034;7.376;2023-04-24T02:11:45;0.20;;;0.20;;
56373;SDS011;58212;47.034;7.376;2023-04-24T02:14:15;0.38;;;0.30;;
56373;SDS011;58212;47.034;7.376;2023-04-24T02:16:42;0.35;;;0.30;;
56373;SDS011;58212;47.034;7.376;2023-04-24T02:19:11;0.52;;;0.20;;
56373;SDS011;58212;47.034;7.376;2023-04-24T02:21:39;0.10;;;0.10;;
56373;SDS011;58212;47.034;7.376;2023-04-24T02:24:07;0.77;;;0.20;;
56373;SDS011;58212;47.034;7.376;2023-04-24T02:26:35;0.40;;;0.20;;
56373;SDS011;58212;47.034;7.376;2023-04-24T02:29:02;0.17;;;0.17;;
56373;SDS011;58212;47.034;7.376;2023-04-24T02:31:30;0.32;;;0.20;;
56373;SDS011;58212;47.034;7.376;2023-04-24T02:33:58;0.22;;;0.20;;
56373;SDS011;58212;47.034;7.376;2023-04-24T02:36:25;0.32;;;0.20;;
56373;SDS011;58212;47.034;7.376;2023-04-24T02:38:52;0.70;;;0.20;;
56373;SDS011;58212;47.034;7.376;2023-04-24T02:41:19;0.60;;;0.20;;
56373;SDS011;58212;47.034;7.376;2023-04-24T02:43:46;0.25;;;0.20;;
56373;SDS011;58212;47.034;7.376;2023-04-24T02:46:14;0.40;;;0.28;;
56373;SDS011;58212;47.034;7.376;2023-04-24T02:48:42;0.30;;;0.30;;
56373;SDS011;58212;47.034;7.376;2023-04-24T02:51:09;0.30;;;0.20;;
56373;SDS011;58212;47.034;7.376;2023-04-24T02:53:36;0.30;;;0.20;;
56373;SDS011;58212;47.034;7.376;2023-04-24T02:56:03;0.20;;;0.20;;
56373;SDS011;58212;47.034;7.376;2023-04-24T02:58:30;0.40;;;0.30;;
56373;SDS011;58212;47.034;7.376;2023-04-24T03:00:58;1.45;;;0.20;;
56373;SDS011;58212;47.034;7.376;2023-04-24T03:03:25;0.73;;;0.30;;
56373;SDS011;58212;47.034;7.376;2023-04-24T03:05:54;0.45;;;0.20;;
56373;SDS011;58212;47.034;7.376;2023-04-24T03:08:22;0.63;;;0.30;;
56373;SDS011;58212;47.034;7.376;2023-04-24T03:10:50;0.55;;;0.20;;
56373;SDS011;58212;47.034;7.376;2023-04-24T03:13:17;0.20;;;0.20;;
56373;SDS011;58212;47.034;7.376;2023-04-24T03:15:45;0.20;;;0.17;;
56373;SDS011;58212;47.034;7.376;2023-04-24T03:18:12;0.30;;;0.20;;
56373;SDS011;58212;47.034;7.376;2023-04-24T03:20:39;1.08;;;0.30;;
56373;SDS011;58212;47.034;7.376;2023-04-24T03:23:08;1.45;;;0.30;;
56373;SDS011;58212;47.034;7.376;2023-04-24T03:25:36;0.40;;;0.20;;
56373;SDS011;58212;47.034;7.376;2023-04-24T03:28:04;0.73;;;0.43;;
56373;SDS011;58212;47.034;7.376;2023-04-24T03:30:44;0.63;;;0.20;;
56373;SDS011;58212;47.034;7.376;2023-04-24T03:33:14;1.75;;;0.38;;
56373;SDS011;58212;47.034;7.376;2023-04-24T03:35:51;1.95;;;0.30;;
56373;SDS011;58212;47.034;7.376;2023-04-24T03:38:19;1.00;;;0.20;;
56373;SDS011;58212;47.034;7.376;2023-04-24T03:40:49;0.20;;;0.20;;
56373;SDS011;58212;47.034;7.376;2023-04-24T03:43:31;0.65;;;0.20;;
56373;SDS011;58212;47.034;7.376;2023-04-24T03:45:59;0.80;;;0.28;;
56373;SDS011;58212;47.034;7.376;2023-04-24T03:48:28;0.32;;;0.20;;
56373;SDS011;58212;47.034;7.376;2023-04-24T03:50:57;0.20;;;0.17;;
56373;SDS011;58212;47.034;7.376;2023-04-24T03:53:26;1.25;;;0.55;;
56373;SDS011;58212;47.034;7.376;2023-04-24T03:55:55;0.40;;;0.30;;
56373;SDS011;58212;47.034;7.376;2023-04-24T03:58:23;0.45;;;0.40;;
56373;SDS011;58212;47.034;7.376;2023-04-24T04:00:54;0.50;;;0.50;;
56373;SDS011;58212;47.034;7.376;2023-04-24T04:03:42;2.40;;;0.40;;
56373;SDS011;58212;47.034;7.376;2023-04-24T04:06:09;1.60;;;0.40;;
56373;SDS011;58212;47.034;7.376;2023-04-24T04:08:40;1.55;;;0.60;;
56373;SDS011;58212;47.034;7.376;2023-04-24T04:11:13;0.40;;;0.40;;
56373;SDS011;58212;47.034;7.376;2023-04-24T04:13:44;0.60;;;0.52;;
56373;SDS011;58212;47.034;7.376;2023-04-24T04:16:16;0.47;;;0.43;;
56373;SDS011;58212;47.034;7.376;2023-04-24T04:18:44;1.00;;;0.40;;
56373;SDS011;58212;47.034;7.376;2023-04-24T04:21:12;2.17;;;0.80;;
56373;SDS011;58212;47.034;7.376;2023-04-24T04:23:40;1.95;;;0.88;;
56373;SDS011;58212;47.034;7.376;2023-04-24T04:26:23;1.13;;;0.60;;
56373;SDS011;58212;47.034;7.376;2023-04-24T04:29:01;1.33;;;0.70;;
56373;SDS011;58212;47.034;7.376;2023-04-24T04:31:30;1.25;;;0.70;;
56373;SDS011;58212;47.034;7.376;2023-04-24T04:34:01;0.85;;;0.70;;
56373;SDS011;58212;47.034;7.376;2023-04-24T04:36:31;2.30;;;0.73;;
56373;SDS011;58212;47.034;7.376;2023-04-24T04:39:16;0.60;;;0.60;;
56373;SDS011;58212;47.034;7.376;2023-04-24T04:42:08;2.22;;;0.88;;
56373;SDS011;58212;47.034;7.376;2023-04-24T04:44:39;1.23;;;0.70;;
56373;SDS011;58212;47.034;7.376;2023-04-24T04:47:09;1.02;;;0.70;;
56373;SDS011;58212;47.034;7.376;2023-04-24T04:49:37;1.50;;;0.55;;
56373;SDS011;58212;47.034;7.376;2023-04-24T04:52:16;1.00;;;0.90;;
56373;SDS011;58212;47.034;7.376;2023-04-24T04:54:51;1.85;;;1.10;;
56373;SDS011;58212;47.034;7.376;2023-04-24T04:57:18;2.53;;;1.20;;
56373;SDS011;58212;47.034;7.376;2023-04-24T04:59:46;2.03;;;1.00;;
56373;SDS011;58212;47.034;7.376;2023-04-24T05:02:21;2.08;;;1.00;;
56373;SDS011;58212;47.034;7.376;2023-04-24T05:04:49;0.80;;;0.80;;
56373;SDS011;58212;47.034;7.376;2023-04-24T05:07:16;1.15;;;1.00;;
56373;SDS011;58212;47.034;7.376;2023-04-24T05:09:52;0.98;;;0.90;;
56373;SDS011;58212;47.034;7.376;2023-04-24T05:12:20;0.85;;;0.63;;
56373;SDS011;58212;47.034;7.376;2023-04-24T05:14:51;1.23;;;0.88;;
56373;SDS011;58212;47.034;7.376;2023-04-24T05:17:19;1.88;;;0.90;;
56373;SDS011;58212;47.034;7.376;2023-04-24T05:19:51;1.02;;;0.65;;
56373;SDS011;58212;47.034;7.376;2023-04-24T05:22:18;1.10;;;0.70;;
56373;SDS011;58212;47.034;7.376;2023-04-24T05:24:49;2.03;;;1.10;;
56373;SDS011;58212;47.034;7.376;2023-04-24T05:27:37;2.05;;;0.70;;
56373;SDS011;58212;47.034;7.376;2023-04-24T05:30:11;1.08;;;0.85;;
56373;SDS011;58212;47.034;7.376;2023-04-24T05:32:39;1.90;;;0.70;;
56373;SDS011;58212;47.034;7.376;2023-04-24T05:35:06;1.38;;;0.85;;
56373;SDS011;58212;47.034;7.376;2023-04-24T05:37:35;1.58;;;1.00;;
56373;SDS011;58212;47.034;7.376;2023-04-24T05:40:07;1.10;;;0.70;;
56373;SDS011;58212;47.034;7.376;2023-04-24T05:42:39;0.68;;;0.60;;
56373;SDS011;58212;47.034;7.376;2023-04-24T05:45:06;1.85;;;0.88;;
56373;SDS011;58212;47.034;7.376;2023-04-24T05:47:34;0.70;;;0.60;;
56373;SDS011;58212;47.034;7.376;2023-04-24T05:50:02;2.17;;;1.30;;
56373;SDS011;58212;47.034;7.376;2023-04-24T05:52:30;1.45;;;1.00;;
56373;SDS011;58212;47.034;7.376;2023-04-24T05:54:57;1.85;;;0.90;;
56373;SDS011;58212;47.034;7.376;2023-04-24T05:57:32;1.90;;;0.80;;
56373;SDS011;58212;47.034;7.376;2023-04-24T06:00:02;1.83;;;0.90;;
56373;SDS011;58212;47.034;7.376;2023-04-24T06:02:46;1.17;;;1.00;;
56373;SDS011;58212;47.034;7.376;2023-04-24T06:05:14;2.50;;;1.58;;
56373;SDS011;58212;47.034;7.376;2023-04-24T06:07:42;3.55;;;1.30;;
56373;SDS011;58212;47.034;7.376;2023-04-24T06:10:09;1.20;;;1.10;;
56373;SDS011;58212;47.034;7.376;2023-04-24T06:12:43;2.17;;;1.00;;
56373;SDS011;58212;47.034;7.376;2023-04-24T06:15:15;1.77;;;0.90;;
56373;SDS011;58212;47.034;7.376;2023-04-24T06:17:50;1.85;;;0.80;;
56373;SDS011;58212;47.034;7.376;2023-04-24T06:20:19;2.45;;;1.30;;
56373;SDS011;58212;47.034;7.376;2023-04-24T06:22:47;2.50;;;1.35;;
56373;SDS011;58212;47.034;7.376;2023-04-24T06:25:15;2.13;;;1.02;;
56373;SDS011;58212;47.034;7.376;2023-04-24T06:27:44;1.60;;;0.90;;
56373;SDS011;58212;47.034;7.376;2023-04-24T06:30:12;3.28;;;0.98;;
56373;SDS011;58212;47.034;7.376;2023-04-24T06:32:40;1.15;;;0.80;;
56373;SDS011;58212;47.034;7.376;2023-04-24T06:35:07;1.77;;;0.90;;
56373;SDS011;58212;47.034;7.376;2023-04-24T06:37:37;1.92;;;0.80;;
56373;SDS011;58212;47.034;7.376;2023-04-24T06:40:05;1.73;;;0.65;;
56373;SDS011;58212;47.034;7.376;2023-04-24T06:42:34;1.75;;;0.68;;
56373;SDS011;58212;47.034;7.376;2023-04-24T06:45:04;0.93;;;0.80;;
56373;SDS011;58212;47.034;7.376;2023-04-24T06:47:32;2.28;;;0.70;;
56373;SDS011;58212;47.034;7.376;2023-04-24T06:49:59;1.58;;;0.80;;
56373;SDS011;58212;47.034;7.376;2023-04-24T06:52:27;1.08;;;0.60;;
56373;SDS011;58212;47.034;7.376;2023-04-24T06:54:59;0.85;;;0.70;;
56373;SDS011;58212;47.034;7.376;2023-04-24T06:57:27;2.47;;;1.00;;
56373;SDS011;58212;47.034;7.376;2023-04-24T06:59:55;1.58;;;0.80;;
56373;SDS011;58212;47.034;7.376;2023-04-24T07:02:24;1.10;;;0.80;;
56373;SDS011;58212;47.034;7.376;2023-04-24T07:04:52;3.10;;;0.98;;
56373;SDS011;58212;47.034;7.376;2023-04-24T07:07:19;1.08;;;0.80;;
56373;SDS011;58212;47.034;7.376;2023-04-24T07:09:47;2.60;;;0.82;;
56373;SDS011;58212;47.034;7.376;2023-04-24T07:12:15;1.40;;;0.88;;
56373;SDS011;58212;47.034;7.376;2023-04-24T07:14:46;1.92;;;0.80;;
56373;SDS011;58212;47.034;7.376;2023-04-24T07:17:14;1.90;;;0.80;;
56373;SDS011;58212;47.034;7.376;2023-04-24T07:19:42;1.02;;;0.90;;
56373;SDS011;58212;47.034;7.376;2023-04-24T07:22:09;2.63;;;0.88;;
56373;SDS011;58212;47.034;7.376;2023-04-24T07:24:41;1.38;;;0.95;;
56373;SDS011;58212;47.034;7.376;2023-04-24T07:27:09;1.83;;;1.08;;
56373;SDS011;58212;47.034;7.376;2023-04-24T07:29:36;2.60;;;1.35;;
56373;SDS011;58212;47.034;7.376;2023-04-24T07:32:05;3.00;;;1.10;;
56373;SDS011;58212;47.034;7.376;2023-04-24T07:34:32;1.73;;;1.10;;
56373;SDS011;58212;47.034;7.376;2023-04-24T07:37:26;2.60;;;1.42;;
56373;SDS011;58212;47.034;7.376;2023-04-24T07:39:54;3.88;;;1.45;;
56373;SDS011;58212;47.034;7.376;2023-04-24T07:42:21;2.80;;;1.00;;
56373;SDS011;58212;47.034;7.376;2023-04-24T07:44:49;1.75;;;1.10;;
56373;SDS011;58212;47.034;7.376;2023-04-24T07:47:16;1.95;;;1.15;;
56373;SDS011;58212;47.034;7.376;2023-04-24T07:49:43;4.22;;;1.15;;
56373;SDS011;58212;47.034;7.376;2023-04-24T07:52:11;3.40;;;1.48;;
56373;SDS011;58212;47.034;7.376;2023-04-24T07:54:39;2.42;;;1.30;;
56373;SDS011;58212;47.034;7.376;2023-04-24T07:57:08;1.33;;;0.98;;
56373;SDS011;58212;47.034;7.376;2023-04-24T08:00:01;2.10;;;1.25;;
56373;SDS011;58212;47.034;7.376;2023-04-24T08:02:36;3.90;;;1.17;;
56373;SDS011;58212;47.034;7.376;2023-04-24T08:05:04;2.40;;;1.60;;
56373;SDS011;58212;47.034;7.376;2023-04-24T08:07:31;2.65;;;1.23;;
56373;SDS011;58212;47.034;7.376;2023-04-24T08:10:00;2.10;;;1.33;;
56373;SDS011;58212;47.034;7.376;2023-04-24T08:12:29;3.35;;;1.42;;
56373;SDS011;58212;47.034;7.376;2023-04-24T08:14:56;2.40;;;1.40;;
56373;SDS011;58212;47.034;7.376;2023-04-24T08:17:23;2.00;;;1.20;;
56373;SDS011;58212;47.034;7.376;2023-04-24T08:19:50;1.40;;;1.10;;
56373;SDS011;58212;47.034;7.376;2023-04-24T08:22:25;1.90;;;1.30;;
56373;SDS011;58212;47.034;7.376;2023-04-24T08:24:52;2.83;;;1.20;;
56373;SDS011;58212;47.034;7.376;2023-04-24T08:27:45;2.25;;;1.10;;
56373;SDS011;58212;47.034;7.376;2023-04-24T08:30:13;3.70;;;1.38;;
56373;SDS011;58212;47.034;7.376;2023-04-24T08:32:40;2.08;;;1.10;;
56373;SDS011;58212;47.034;7.376;2023-04-24T08:35:07;2.35;;;1.08;;
56373;SDS011;58212;47.034;7.376;2023-04-24T08:37:36;2.55;;;1.35;;
56373;SDS011;58212;47.034;7.376;2023-04-24T08:40:05;2.53;;;1.20;;
56373;SDS011;58212;47.034;7.376;2023-04-24T08:42:36;3.33;;;1.42;;
56373;SDS011;58212;47.034;7.376;2023-04-24T08:45:08;2.53;;;1.08;;
56373;SDS011;58212;47.034;7.376;2023-04-24T08:47:37;2.28;;;1.42;;
56373;SDS011;58212;47.034;7.376;2023-04-24T08:50:05;3.47;;;1.30;;
56373;SDS011;58212;47.034;7.376;2023-04-24T08:52:39;2.22;;;1.13;;
56373;SDS011;58212;47.034;7.376;2023-04-24T08:55:08;2.17;;;1.27;;
56373;SDS011;58212;47.034;7.376;2023-04-24T08:57:36;2.60;;;1.77;;
56373;SDS011;58212;47.034;7.376;2023-04-24T09:00:08;1.70;;;1.17;;
56373;SDS011;58212;47.034;7.376;2023-04-24T09:02:35;2.03;;;1.40;;
56373;SDS011;58212;47.034;7.376;2023-04-24T09:05:04;2.22;;;1.48;;
56373;SDS011;58212;47.034;7.376;2023-04-24T09:07:32;3.60;;;1.42;;
56373;SDS011;58212;47.034;7.376;2023-04-24T09:10:03;2.85;;;1.40;;
56373;SDS011;58212;47.034;7.376;2023-04-24T09:12:30;4.07;;;1.63;;
56373;SDS011;58212;47.034;7.376;2023-04-24T09:14:59;1.92;;;1.20;;
56373;SDS011;58212;47.034;7.376;2023-04-24T09:17:37;2.33;;;1.63;;
56373;SDS011;58212;47.034;7.376;2023-04-24T09:20:06;2.22;;;1.40;;
56373;SDS011;58212;47.034;7.376;2023-04-24T09:22:35;2.13;;;1.23;;
56373;SDS011;58212;47.034;7.376;2023-04-24T09:25:03;1.80;;;1.30;;
56373;SDS011;58212;47.034;7.376;2023-04-24T09:27:31;2.22;;;1.10;;
56373;SDS011;58212;47.034;7.376;2023-04-24T09:29:59;4.53;;;1.15;;
56373;SDS011;58212;47.034;7.376;2023-04-24T09:32:27;2.70;;;1.30;;
56373;SDS011;58212;47.034;7.376;2023-04-24T09:35:06;3.05;;;1.35;;
56373;SDS011;58212;47.034;7.376;2023-04-24T09:37:43;1.35;;;1.20;;
56373;SDS011;58212;47.034;7.376;2023-04-24T09:40:39;2.03;;;1.42;;
56373;SDS011;58212;47.034;7.376;2023-04-24T09:43:44;2.92;;;1.15;;
56373;SDS011;58212;47.034;7.376;2023-04-24T09:46:11;2.75;;;1.40;;
56373;SDS011;58212;47.034;7.376;2023-04-24T09:48:38;3.97;;;1.27;;
56373;SDS011;58212;47.034;7.376;2023-04-24T09:51:07;3.35;;;1.30;;
56373;SDS011;58212;47.034;7.376;2023-04-24T09:54:01;1.85;;;0.90;;
56373;SDS011;58212;47.034;7.376;2023-04-24T09:56:32;3.58;;;1.10;;
56373;SDS011;58212;47.034;7.376;2023-04-24T09:59:05;2.85;;;1.13;;
56373;SDS011;58212;47.034;7.376;2023-04-24T10:01:33;1.88;;;1.00;;
56373;SDS011;58212;47.034;7.376;2023-04-24T10:04:01;1.60;;;1.10;;
56373;SDS011;58212;47.034;7.376;2023-04-24T10:06:40;1.52;;;1.17;;
56373;SDS011;58212;47.034;7.376;2023-04-24T10:09:09;2.33;;;1.30;;
56373;SDS011;58212;47.034;7.376;2023-04-24T10:11:37;3.08;;;1.50;;
56373;SDS011;58212;47.034;7.376;2023-04-24T10:14:09;2.28;;;1.30;;
56373;SDS011;58212;47.034;7.376;2023-04-24T10:16:38;2.17;;;1.38;;
56373;SDS011;58212;47.034;7.376;2023-04-24T10:19:06;1.65;;;1.30;;
56373;SDS011;58212;47.034;7.376;2023-04-24T10:21:34;1.58;;;1.05;;
56373;SDS011;58212;47.034;7.376;2023-04-24T10:24:07;2.85;;;1.33;;
56373;SDS011;58212;47.034;7.376;2023-04-24T10:26:40;1.83;;;1.10;;
56373;SDS011;58212;47.034;7.376;2023-04-24T10:29:32;1.77;;;1.08;;
56373;SDS011;58212;47.034;7.376;2023-04-24T10:32:02;3.05;;;1.35;;
56373;SDS011;58212;47.034;7.376;2023-04-24T10:34:30;3.15;;;1.33;;
56373;SDS011;58212;47.034;7.376;2023-04-24T10:36:58;2.22;;;1.30;;
56373;SDS011;58212;47.034;7.376;2023-04-24T10:39:26;2.65;;;1.05;;
56373;SDS011;58212;47.034;7.376;2023-04-24T10:48:08;2.42;;;1.20;;
56373;SDS011;58212;47.034;7.376;2023-04-24T10:50:42;2.47;;;1.27;;
56373;SDS011;58212;47.034;7.376;2023-04-24T10:53:16;1.35;;;1.10;;
56373;SDS011;58212;47.034;7.376;2023-04-24T10:55:46;4.43;;;1.58;;
56373;SDS011;58212;47.034;7.376;2023-04-24T10:58:14;1.75;;;1.10;;
56373;SDS011;58212;47.034;7.376;2023-04-24T11:00:47;2.17;;;1.25;;
56373;SDS011;58212;47.034;7.376;2023-04-24T11:03:25;2.88;;;1.35;;
56373;SDS011;58212;47.034;7.376;2023-04-24T11:05:58;1.77;;;0.93;;
56373;SDS011;58212;47.034;7.376;2023-04-24T11:08:32;1.60;;;1.20;;
56373;SDS011;58212;47.034;7.376;2023-04-24T11:11:09;2.35;;;1.02;;
56373;SDS011;58212;47.034;7.376;2023-04-24T11:16:31;2.20;;;1.30;;
56373;SDS011;58212;47.034;7.376;2023-04-24T11:19:02;2.70;;;1.45;;
56373;SDS011;58212;47.034;7.376;2023-04-24T11:21:31;2.70;;;1.20;;
56373;SDS011;58212;47.034;7.376;2023-04-24T11:27:23;2.03;;;1.17;;
56373;SDS011;58212;47.034;7.376;2023-04-24T11:29:58;1.50;;;1.20;;
56373;SDS011;58212;47.034;7.376;2023-04-24T11:32:28;1.75;;;1.42;;
56373;SDS011;58212;47.034;7.376;2023-04-24T11:34:58;2.65;;;1.20;;
56373;SDS011;58212;47.034;7.376;2023-04-24T11:37:27;2.35;;;1.20;;
56373;SDS011;58212;47.034;7.376;2023-04-24T11:39:58;2.70;;;1.40;;
56373;SDS011;58212;47.034;7.376;2023-04-24T11:42:26;1.48;;;1.15;;
56373;SDS011;58212;47.034;7.376;2023-04-24T11:44:54;3.38;;;1.50;;
56373;SDS011;58212;47.034;7.376;2023-04-24T11:47:28;3.00;;;1.50;;
56373;SDS011;58212;47.034;7.376;2023-04-24T11:49:56;1.27;;;1.10;;
56373;SDS011;58212;47.034;7.376;2023-04-24T11:52:24;1.55;;;1.10;;
56373;SDS011;58212;47.034;7.376;2023-04-24T11:54:54;1.92;;;1.02;;
56373;SDS011;58212;47.034;7.376;2023-04-24T11:57:23;2.05;;;1.00;;
56373;SDS011;58212;47.034;7.376;2023-04-24T11:59:54;2.10;;;1.15;;
56373;SDS011;58212;47.034;7.376;2023-04-24T12:02:24;1.92;;;1.10;;
56373;SDS011;58212;47.034;7.376;2023-04-24T12:04:52;2.97;;;1.30;;
56373;SDS011;58212;47.034;7.376;2023-04-24T12:07:20;2.28;;;1.67;;
56373;SDS011;58212;47.034;7.376;2023-04-24T12:09:50;2.35;;;1.30;;
56373;SDS011;58212;47.034;7.376;2023-04-24T12:12:28;1.58;;;1.30;;
56373;SDS011;58212;47.034;7.376;2023-04-24T12:14:55;1.85;;;1.00;;
56373;SDS011;58212;47.034;7.376;2023-04-24T12:17:24;2.45;;;1.30;;
56373;SDS011;58212;47.034;7.376;2023-04-24T12:19:52;1.83;;;1.33;;
56373;SDS011;58212;47.034;7.376;2023-04-24T12:22:23;3.38;;;1.17;;
56373;SDS011;58212;47.034;7.376;2023-04-24T12:24:57;2.40;;;0.80;;
56373;SDS011;58212;47.034;7.376;2023-04-24T12:27:27;1.58;;;0.90;;
56373;SDS011;58212;47.034;7.376;2023-04-24T12:29:56;2.47;;;0.88;;
56373;SDS011;58212;47.034;7.376;2023-04-24T12:32:25;1.17;;;0.75;;
56373;SDS011;58212;47.034;7.376;2023-04-24T12:34:53;1.85;;;0.98;;
56373;SDS011;58212;47.034;7.376;2023-04-24T12:37:22;1.65;;;0.85;;
56373;SDS011;58212;47.034;7.376;2023-04-24T12:39:58;1.17;;;0.80;;
56373;SDS011;58212;47.034;7.376;2023-04-24T12:42:31;1.20;;;0.77;;
56373;SDS011;58212;47.034;7.376;2023-04-24T12:44:59;1.00;;;0.75;;
56373;SDS011;58212;47.034;7.376;2023-04-24T12:47:30;1.35;;;0.80;;
56373;SDS011;58212;47.034;7.376;2023-04-24T12:49:58;3.95;;;0.90;;
56373;SDS011;58212;47.034;7.376;2023-04-24T12:52:27;2.33;;;0.80;;
56373;SDS011;58212;47.034;7.376;2023-04-24T12:54:55;2.03;;;0.98;;
56373;SDS011;58212;47.034;7.376;2023-04-24T12:57:24;2.97;;;1.13;;
56373;SDS011;58212;47.034;7.376;2023-04-24T12:59:54;1.42;;;0.75;;
56373;SDS011;58212;47.034;7.376;2023-04-24T13:02:22;1.38;;;0.70;;
56373;SDS011;58212;47.034;7.376;2023-04-24T13:04:49;1.00;;;0.80;;
56373;SDS011;58212;47.034;7.376;2023-04-24T13:07:17;0.82;;;0.65;;
56373;SDS011;58212;47.034;7.376;2023-04-24T13:09:44;1.90;;;0.88;;
56373;SDS011;58212;47.034;7.376;2023-04-24T13:12:14;1.52;;;0.90;;
56373;SDS011;58212;47.034;7.376;2023-04-24T13:14:42;1.23;;;0.90;;
56373;SDS011;58212;47.034;7.376;2023-04-24T13:17:15;2.80;;;1.00;;
56373;SDS011;58212;47.034;7.376;2023-04-24T13:19:43;1.70;;;1.10;;
56373;SDS011;58212;47.034;7.376;2023-04-24T13:22:11;1.25;;;0.77;;
56373;SDS011;58212;47.034;7.376;2023-04-24T13:24:39;1.42;;;1.30;;
56373;SDS011;58212;47.034;7.376;2023-04-24T13:27:07;3.00;;;1.10;;
56373;SDS011;58212;47.034;7.376;2023-04-24T13:29:37;1.45;;;1.23;;
56373;SDS011;58212;47.034;7.376;2023-04-24T13:32:04;1.83;;;1.30;;
56373;SDS011;58212;47.034;7.376;2023-04-24T13:34:33;1.80;;;1.13;;
56373;SDS011;58212;47.034;7.376;2023-04-24T13:37:02;1.73;;;1.20;;
56373;SDS011;58212;47.034;7.376;2023-04-24T13:39:29;1.65;;;1.10;;
56373;SDS011;58212;47.034;7.376;2023-04-24T13:41:59;1.98;;;1.38;;
56373;SDS011;58212;47.034;7.376;2023-04-24T13:44:26;0.82;;;0.82;;
56373;SDS011;58212;47.034;7.376;2023-04-24T13:46:57;1.92;;;1.13;;
56373;SDS011;58212;47.034;7.376;2023-04-24T13:49:25;1.63;;;1.23;;
56373;SDS011;58212;47.034;7.376;2023-04-24T13:51:54;5.07;;;1.02;;
56373;SDS011;58212;47.034;7.376;2023-04-24T13:54:22;1.80;;;1.30;;
56373;SDS011;58212;47.034;7.376;2023-04-24T13:56:50;2.38;;;1.00;;
56373;SDS011;58212;47.034;7.376;2023-04-24T13:59:19;1.80;;;1.00;;
56373;SDS011;58212;47.034;7.376;2023-04-24T14:01:46;2.08;;;1.00;;
56373;SDS011;58212;47.034;7.376;2023-04-24T14:04:15;1.60;;;1.00;;
56373;SDS011;58212;47.034;7.376;2023-04-24T14:07:09;1.52;;;1.20;;
56373;SDS011;58212;47.034;7.376;2023-04-24T14:09:37;1.27;;;0.85;;
56373;SDS011;58212;47.034;7.376;2023-04-24T14:12:29;1.88;;;0.93;;
56373;SDS011;58212;47.034;7.376;2023-04-24T14:15:21;4.65;;;1.38;;
56373;SDS011;58212;47.034;7.376;2023-04-24T14:18:13;1.33;;;0.90;;
56373;SDS011;58212;47.034;7.376;2023-04-24T14:20:44;1.80;;;1.10;;
56373;SDS011;58212;47.034;7.376;2023-04-24T14:23:13;3.05;;;1.05;;
56373;SDS011;58212;47.034;7.376;2023-04-24T14:25:42;3.00;;;1.48;;
56373;SDS011;58212;47.034;7.376;2023-04-24T14:28:10;1.17;;;0.98;;
56373;SDS011;58212;47.034;7.376;2023-04-24T14:30:38;1.48;;;1.10;;
56373;SDS011;58212;47.034;7.376;2023-04-24T14:33:06;3.33;;;1.35;;
56373;SDS011;58212;47.034;7.376;2023-04-24T14:35:34;1.17;;;1.10;;
56373;SDS011;58212;47.034;7.376;2023-04-24T14:38:03;1.40;;;1.08;;
56373;SDS011;58212;47.034;7.376;2023-04-24T14:40:33;2.20;;;1.40;;
56373;SDS011;58212;47.034;7.376;2023-04-24T14:43:04;3.53;;;1.17;;
56373;SDS011;58212;47.034;7.376;2023-04-24T14:45:32;2.72;;;1.10;;
56373;SDS011;58212;47.034;7.376;2023-04-24T14:48:00;1.70;;;1.10;;
56373;SDS011;58212;47.034;7.376;2023-04-24T14:50:27;1.42;;;1.00;;
56373;SDS011;58212;47.034;7.376;2023-04-24T14:52:55;1.38;;;1.23;;
56373;SDS011;58212;47.034;7.376;2023-04-24T14:55:22;2.08;;;1.10;;
56373;SDS011;58212;47.034;7.376;2023-04-24T14:57:51;1.98;;;1.17;;
56373;SDS011;58212;47.034;7.376;2023-04-24T15:00:43;1.20;;;1.08;;
56373;SDS011;58212;47.034;7.376;2023-04-24T15:03:11;1.33;;;1.17;;
56373;SDS011;58212;47.034;7.376;2023-04-24T15:05:38;1.17;;;1.00;;
56373;SDS011;58212;47.034;7.376;2023-04-24T15:08:08;2.15;;;0.90;;
56373;SDS011;58212;47.034;7.376;2023-04-24T15:10:35;1.95;;;1.40;;
56373;SDS011;58212;47.034;7.376;2023-04-24T15:13:03;4.18;;;1.50;;
56373;SDS011;58212;47.034;7.376;2023-04-24T15:15:31;2.15;;;1.13;;
56373;SDS011;58212;47.034;7.376;2023-04-24T15:17:58;2.72;;;1.25;;
56373;SDS011;58212;47.034;7.376;2023-04-24T15:20:25;0.88;;;0.80;;